sensor_id;sensor_type;location;lat;lon;timestamp;temperature;humidity
2002;DHT22;1003;48.002;7.788;2023-07-08T00:00:44;19.00;99.90
2002;DHT22;1003;48.002;7.788;2023-07-08T00:03:13;18.80;99.90
2002;DHT22;1003;48.002;7.788;2023-07-08T00:05:40;18.80;99.90
2002;DHT22;1003;48.002;7.788;2023-07-08T00:08:08;18.80;99.90
2002;DHT22;1003;48.002;7.788;2023-07-08T00:10:39;18.90;99.90
2002;DHT22;1003;48.002;7.788;2023-07-08T00:13:09;19.10;99.90
2002;DHT22;1003;48.002;7.788;2023-07-08T00:15:37;19.20;99.90
2002;DHT22;1003;48.002;7.788;2023-07-08T00:18:11;19.00;99.90
2002;DHT22;1003;48.002;7.788;2023-07-08T00:20:40;18.70;99.90
2002;DHT22;1003;48.002;7.788;2023-07-08T00:23:11;18.60;99.90
2002;DHT22;1003;48.002;7.788;2023-07-08T00:25:39;18.60;99.90
2002;DHT22;1003;48.002;7.788;2023-07-08T00:28:09;18.60;99.90
2002;DHT22;1003;48.002;7.788;2023-07-08T00:30:38;18.70;99.90
2002;DHT22;1003;48.002;7.788;2023-07-08T00:33:06;18.70;99.90
2002;DHT22;1003;48.002;7.788;2023-07-08T00:35:35;18.70;99.90
2002;DHT22;1003;48.002;7.788;2023-07-08T00:38:12;18.70;99.90
2002;DHT22;1003;48.002;7.788;2023-07-08T00:40:50;18.70;99.90
2002;DHT22;1003;48.002;7.788;2023-07-08T00:43:23;18.70;99.90
2002;DHT22;1003;48.002;7.788;2023-07-08T00:46:03;18.60;99.90
2002;DHT22;1003;48.002;7.788;2023-07-08T00:48:42;18.40;99.90
2002;DHT22;1003;48.002;7.788;2023-07-08T00:51:12;18.40;99.90
2002;DHT22;1003;48.002;7.788;2023-07-08T00:53:39;18.30;99.90
2002;DHT22;1003;48.002;7.788;2023-07-08T00:56:09;18.20;99.90
2002;DHT22;1003;48.002;7.788;2023-07-08T00:58:43;18.10;99.90
2002;DHT22;1003;48.002;7.788;2023-07-08T01:01:12;18.10;99.90
2002;DHT22;1003;48.002;7.788;2023-07-08T01:03:45;18.10;99.90
2002;DHT22;1003;48.002;7.788;2023-07-08T01:06:16;18.00;99.90
2002;DHT22;1003;48.002;7.788;2023-07-08T01:08:44;18.00;99.90
2002;DHT22;1003;48.002;7.788;2023-07-08T01:11:15;18.10;99.90
2002;DHT22;1003;48.002;7.788;2023-07-08T01:13:44;18.00;99.90
2002;DHT22;1003;48.002;7.788;2023-07-08T01:16:12;18.10;99.90
2002;DHT22;1003;48.002;7.788;2023-07-08T01:18:41;18.10;99.90
2002;DHT22;1003;48.002;7.788;2023-07-08T01:21:28;18.00;99.90
2002;DHT22;1003;48.002;7.788;2023-07-08T01:23:59;18.00;99.90
2002;DHT22;1003;48.002;7.788;2023-07-08T01:26:29;18.00;99.90
2002;DHT22;1003;48.002;7.788;2023-07-08T01:29:00;18.00;99.90
2002;DHT22;1003;48.002;7.788;2023-07-08T01:31:29;18.00;99.90
2002;DHT22;1003;48.002;7.788;2023-07-08T01:33:56;18.00;99.90
2002;DHT22;1003;48.002;7.788;2023-07-08T01:36:23;18.10;99.90
2002;DHT22;1003;48.002;7.788;2023-07-08T01:38:52;18.10;99.90
2002;DHT22;1003;48.002;7.788;2023-07-08T01:41:20;18.10;99.90
2002;DHT22;1003;48.002;7.788;2023-07-08T01:43:47;18.20;99.90
2002;DHT22;1003;48.002;7.788;2023-07-08T01:46:19;18.20;99.90
2002;DHT22;1003;48.002;7.788;2023-07-08T01:48:52;18.20;99.90
2002;DHT22;1003;48.002;7.788;2023-07-08T01:51:23;18.20;99.90
2002;DHT22;1003;48.002;7.788;2023-07-08T01:53:52;18.20;99.90
2002;DHT22;1003;48.002;7.788;2023-07-08T01:56:20;18.20;99.90
2002;DHT22;1003;48.002;7.788;2023-07-08T01:58:47;18.20;99.90
2002;DHT22;1003;48.002;7.788;2023-07-08T02:01:14;18.30;99.90
2002;DHT22;1003;48.002;7.788;2023-07-08T02:03:42;18.30;99.90
2002;DHT22;1003;48.002;7.788;2023-07-08T02:06:12;18.30;99.90
2002;DHT22;1003;48.002;7.788;2023-07-08T02:08:39;18.40;99.90
2002;DHT22;1003;48.002;7.788;2023-07-08T02:11:06;18.40;99.90
2002;DHT22;1003;48.002;7.788;2023-07-08T02:13:34;18.50;99.90
2002;DHT22;1003;48.002;7.788;2023-07-08T02:16:01;18.50;99.90
2002;DHT22;1003;48.002;7.788;2023-07-08T02:18:28;18.60;99.90
2002;DHT22;1003;48.002;7.788;2023-07-08T02:20:57;18.60;99.90
2002;DHT22;1003;48.002;7.788;2023-07-08T02:23:25;18.50;99.90
2002;DHT22;1003;48.002;7.788;2023-07-08T02:25:53;18.30;99.90
2002;DHT22;1003;48.002;7.788;2023-07-08T02:28:22;18.30;99.90
2002;DHT22;1003;48.002;7.788;2023-07-08T02:30:51;18.30;99.90
2002;DHT22;1003;48.002;7.788;2023-07-08T02:33:18;18.30;99.90
2002;DHT22;1003;48.002;7.788;2023-07-08T02:35:45;18.40;99.90
2002;DHT22;1003;48.002;7.788;2023-07-08T02:38:13;18.60;99.90
2002;DHT22;1003;48.002;7.788;2023-07-08T02:40:41;18.80;99.90
2002;DHT22;1003;48.002;7.788;2023-07-08T02:43:09;18.90;99.90
2002;DHT22;1003;48.002;7.788;2023-07-08T02:45:36;19.10;99.90
2002;DHT22;1003;48.002;7.788;2023-07-08T02:48:04;19.30;99.90
2002;DHT22;1003;48.002;7.788;2023-07-08T02:50:32;19.40;99.90
2002;DHT22;1003;48.002;7.788;2023-07-08T02:52:59;19.50;99.90
2002;DHT22;1003;48.002;7.788;2023-07-08T02:55:26;19.50;99.90
2002;DHT22;1003;48.002;7.788;2023-07-08T02:57:53;19.50;99.90
2002;DHT22;1003;48.002;7.788;2023-07-08T03:00:20;19.50;99.90
2002;DHT22;1003;48.002;7.788;2023-07-08T03:02:47;19.50;99.90
2002;DHT22;1003;48.002;7.788;2023-07-08T03:05:15;19.50;99.90
2002;DHT22;1003;48.002;7.788;2023-07-08T03:07:42;19.50;99.90
2002;DHT22;1003;48.002;7.788;2023-07-08T03:10:10;19.50;99.90
2002;DHT22;1003;48.002;7.788;2023-07-08T03:12:37;19.50;99.90
2002;DHT22;1003;48.002;7.788;2023-07-08T03:15:05;19.50;99.90
2002;DHT22;1003;48.002;7.788;2023-07-08T03:17:33;19.50;99.90
2002;DHT22;1003;48.002;7.788;2023-07-08T03:20:00;19.40;99.90
2002;DHT22;1003;48.002;7.788;2023-07-08T03:22:28;19.40;99.90
2002;DHT22;1003;48.002;7.788;2023-07-08T03:24:55;19.30;99.90
2002;DHT22;1003;48.002;7.788;2023-07-08T03:27:22;19.20;99.90
2002;DHT22;1003;48.002;7.788;2023-07-08T03:29:49;19.10;99.90
2002;DHT22;1003;48.002;7.788;2023-07-08T03:32:16;19.10;99.90
2002;DHT22;1003;48.002;7.788;2023-07-08T03:34:43;19.10;99.90
2002;DHT22;1003;48.002;7.788;2023-07-08T03:37:10;19.10;99.90
2002;DHT22;1003;48.002;7.788;2023-07-08T03:39:39;19.20;99.90
2002;DHT22;1003;48.002;7.788;2023-07-08T03:42:06;19.40;99.90
2002;DHT22;1003;48.002;7.788;2023-07-08T03:44:33;19.60;99.90
2002;DHT22;1003;48.002;7.788;2023-07-08T03:47:00;19.90;99.90
2002;DHT22;1003;48.002;7.788;2023-07-08T03:49:27;20.10;99.90
2002;DHT22;1003;48.002;7.788;2023-07-08T03:51:54;20.40;99.90
2002;DHT22;1003;48.002;7.788;2023-07-08T03:54:23;20.60;99.90
2002;DHT22;1003;48.002;7.788;2023-07-08T03:56:53;20.70;99.90
2002;DHT22;1003;48.002;7.788;2023-07-08T03:59:20;20.90;99.90
2002;DHT22;1003;48.002;7.788;2023-07-08T04:01:47;21.10;99.90
2002;DHT22;1003;48.002;7.788;2023-07-08T04:04:15;21.20;99.90
2002;DHT22;1003;48.002;7.788;2023-07-08T04:06:42;21.20;99.90
2002;DHT22;1003;48.002;7.788;2023-07-08T04:09:11;21.30;99.90
2002;DHT22;1003;48.002;7.788;2023-07-08T04:11:38;21.40;99.90
2002;DHT22;1003;48.002;7.788;2023-07-08T04:14:07;21.40;99.90
2002;DHT22;1003;48.002;7.788;2023-07-08T04:16:43;21.40;99.90
2002;DHT22;1003;48.002;7.788;2023-07-08T04:19:14;21.30;99.90
2002;DHT22;1003;48.002;7.788;2023-07-08T04:21:42;21.10;99.90
2002;DHT22;1003;48.002;7.788;2023-07-08T04:24:11;20.90;99.90
2002;DHT22;1003;48.002;7.788;2023-07-08T04:26:40;20.70;99.90
2002;DHT22;1003;48.002;7.788;2023-07-08T04:29:11;20.60;99.90
2002;DHT22;1003;48.002;7.788;2023-07-08T04:31:39;20.30;99.90
2002;DHT22;1003;48.002;7.788;2023-07-08T04:34:07;20.20;99.90
2002;DHT22;1003;48.002;7.788;2023-07-08T04:36:35;20.10;99.90
2002;DHT22;1003;48.002;7.788;2023-07-08T04:39:03;20.00;99.90
2002;DHT22;1003;48.002;7.788;2023-07-08T04:41:32;20.00;99.90
2002;DHT22;1003;48.002;7.788;2023-07-08T04:43:59;19.90;99.90
2002;DHT22;1003;48.002;7.788;2023-07-08T04:46:34;19.90;99.90
2002;DHT22;1003;48.002;7.788;2023-07-08T04:49:04;19.70;99.90
2002;DHT22;1003;48.002;7.788;2023-07-08T04:51:32;19.60;99.90
2002;DHT22;1003;48.002;7.788;2023-07-08T04:53:59;19.40;99.90
2002;DHT22;1003;48.002;7.788;2023-07-08T04:56:36;19.30;99.90
2002;DHT22;1003;48.002;7.788;2023-07-08T04:59:05;19.20;99.90
2002;DHT22;1003;48.002;7.788;2023-07-08T05:01:34;19.10;99.90
2002;DHT22;1003;48.002;7.788;2023-07-08T05:04:01;19.00;99.90
2002;DHT22;1003;48.002;7.788;2023-07-08T05:06:30;18.90;99.90
2002;DHT22;1003;48.002;7.788;2023-07-08T05:08:58;18.90;99.90
2002;DHT22;1003;48.002;7.788;2023-07-08T05:11:25;18.90;99.90
2002;DHT22;1003;48.002;7.788;2023-07-08T05:13:53;18.90;99.90
2002;DHT22;1003;48.002;7.788;2023-07-08T05:16:20;18.90;99.90
2002;DHT22;1003;48.002;7.788;2023-07-08T05:18:48;18.90;99.90
2002;DHT22;1003;48.002;7.788;2023-07-08T05:21:17;18.80;99.90
2002;DHT22;1003;48.002;7.788;2023-07-08T05:23:45;18.70;99.90
2002;DHT22;1003;48.002;7.788;2023-07-08T05:26:15;18.60;99.90
2002;DHT22;1003;48.002;7.788;2023-07-08T05:28:43;18.60;99.90
2002;DHT22;1003;48.002;7.788;2023-07-08T05:31:10;18.60;99.90
2002;DHT22;1003;48.002;7.788;2023-07-08T05:33:37;18.60;99.90
2002;DHT22;1003;48.002;7.788;2023-07-08T05:36:06;18.60;99.90
2002;DHT22;1003;48.002;7.788;2023-07-08T05:38:33;18.50;99.90
2002;DHT22;1003;48.002;7.788;2023-07-08T05:41:00;18.50;99.90
2002;DHT22;1003;48.002;7.788;2023-07-08T05:43:27;18.50;99.90
2002;DHT22;1003;48.002;7.788;2023-07-08T05:45:58;18.50;99.90
2002;DHT22;1003;48.002;7.788;2023-07-08T05:48:25;18.40;99.90
2002;DHT22;1003;48.002;7.788;2023-07-08T05:50:52;18.30;99.90
2002;DHT22;1003;48.002;7.788;2023-07-08T05:53:20;18.30;99.90
2002;DHT22;1003;48.002;7.788;2023-07-08T05:55:48;18.30;99.90
2002;DHT22;1003;48.002;7.788;2023-07-08T05:58:15;18.30;99.90
2002;DHT22;1003;48.002;7.788;2023-07-08T06:00:43;18.30;99.90
2002;DHT22;1003;48.002;7.788;2023-07-08T06:03:10;18.40;99.90
2002;DHT22;1003;48.002;7.788;2023-07-08T06:05:38;18.40;99.90
2002;DHT22;1003;48.002;7.788;2023-07-08T06:08:06;18.40;99.90
2002;DHT22;1003;48.002;7.788;2023-07-08T06:10:41;18.40;99.90
2002;DHT22;1003;48.002;7.788;2023-07-08T06:13:09;18.50;99.90
2002;DHT22;1003;48.002;7.788;2023-07-08T06:15:36;18.50;99.90
2002;DHT22;1003;48.002;7.788;2023-07-08T06:18:03;18.40;99.90
2002;DHT22;1003;48.002;7.788;2023-07-08T06:20:30;18.60;99.90
2002;DHT22;1003;48.002;7.788;2023-07-08T06:22:57;18.70;99.90
2002;DHT22;1003;48.002;7.788;2023-07-08T06:25:24;18.80;99.90
2002;DHT22;1003;48.002;7.788;2023-07-08T06:27:53;19.00;99.90
2002;DHT22;1003;48.002;7.788;2023-07-08T06:30:20;19.20;99.90
2002;DHT22;1003;48.002;7.788;2023-07-08T06:32:47;19.40;99.90
2002;DHT22;1003;48.002;7.788;2023-07-08T06:35:14;19.50;99.90
2002;DHT22;1003;48.002;7.788;2023-07-08T06:37:43;19.40;99.90
2002;DHT22;1003;48.002;7.788;2023-07-08T06:40:11;19.30;99.90
2002;DHT22;1003;48.002;7.788;2023-07-08T06:42:39;19.30;99.90
2002;DHT22;1003;48.002;7.788;2023-07-08T06:45:08;19.30;99.90
2002;DHT22;1003;48.002;7.788;2023-07-08T06:47:36;19.40;99.90
2002;DHT22;1003;48.002;7.788;2023-07-08T06:50:04;19.60;99.90
2002;DHT22;1003;48.002;7.788;2023-07-08T06:52:32;19.60;99.90
2002;DHT22;1003;48.002;7.788;2023-07-08T06:55:06;19.70;99.90
2002;DHT22;1003;48.002;7.788;2023-07-08T06:57:35;19.80;99.90
2002;DHT22;1003;48.002;7.788;2023-07-08T07:00:05;19.90;99.90
2002;DHT22;1003;48.002;7.788;2023-07-08T07:02:34;19.80;99.90
2002;DHT22;1003;48.002;7.788;2023-07-08T07:05:01;19.70;99.90
2002;DHT22;1003;48.002;7.788;2023-07-08T07:07:29;19.70;99.90
2002;DHT22;1003;48.002;7.788;2023-07-08T07:09:56;20.10;99.90
2002;DHT22;1003;48.002;7.788;2023-07-08T07:12:24;21.10;99.90
2002;DHT22;1003;48.002;7.788;2023-07-08T07:14:51;22.20;99.90
2002;DHT22;1003;48.002;7.788;2023-07-08T07:17:20;23.00;99.90
2002;DHT22;1003;48.002;7.788;2023-07-08T07:19:47;23.80;99.90
2002;DHT22;1003;48.002;7.788;2023-07-08T07:22:14;24.20;99.90
2002;DHT22;1003;48.002;7.788;2023-07-08T07:24:42;25.00;99.90
2002;DHT22;1003;48.002;7.788;2023-07-08T07:27:09;25.30;99.90
2002;DHT22;1003;48.002;7.788;2023-07-08T07:29:42;25.00;99.90
2002;DHT22;1003;48.002;7.788;2023-07-08T07:32:10;24.60;99.90
2002;DHT22;1003;48.002;7.788;2023-07-08T07:34:40;24.60;99.90
2002;DHT22;1003;48.002;7.788;2023-07-08T07:37:11;24.80;99.90
2002;DHT22;1003;48.002;7.788;2023-07-08T07:39:40;25.00;99.90
2002;DHT22;1003;48.002;7.788;2023-07-08T07:42:08;25.30;99.90
2002;DHT22;1003;48.002;7.788;2023-07-08T07:44:36;25.40;99.90
2002;DHT22;1003;48.002;7.788;2023-07-08T07:47:05;25.40;99.90
2002;DHT22;1003;48.002;7.788;2023-07-08T07:49:33;25.40;99.90
2002;DHT22;1003;48.002;7.788;2023-07-08T07:52:01;25.80;99.90
2002;DHT22;1003;48.002;7.788;2023-07-08T07:54:29;26.30;99.90
2002;DHT22;1003;48.002;7.788;2023-07-08T07:56:56;26.20;99.90
2002;DHT22;1003;48.002;7.788;2023-07-08T07:59:23;25.70;99.90
2002;DHT22;1003;48.002;7.788;2023-07-08T08:01:50;24.80;99.90
2002;DHT22;1003;48.002;7.788;2023-07-08T08:04:17;24.40;99.90
2002;DHT22;1003;48.002;7.788;2023-07-08T08:06:44;24.10;99.90
2002;DHT22;1003;48.002;7.788;2023-07-08T08:09:12;24.00;99.90
2002;DHT22;1003;48.002;7.788;2023-07-08T08:11:39;23.90;99.90
2002;DHT22;1003;48.002;7.788;2023-07-08T08:14:06;23.90;99.90
2002;DHT22;1003;48.002;7.788;2023-07-08T08:16:33;23.90;99.90
2002;DHT22;1003;48.002;7.788;2023-07-08T08:19:00;23.80;99.90
2002;DHT22;1003;48.002;7.788;2023-07-08T08:21:27;23.90;99.90
2002;DHT22;1003;48.002;7.788;2023-07-08T08:23:54;23.90;99.90
2002;DHT22;1003;48.002;7.788;2023-07-08T08:26:23;23.90;99.90
2002;DHT22;1003;48.002;7.788;2023-07-08T08:28:50;23.90;99.90
2002;DHT22;1003;48.002;7.788;2023-07-08T08:31:17;24.10;99.90
2002;DHT22;1003;48.002;7.788;2023-07-08T08:33:44;24.10;99.90
2002;DHT22;1003;48.002;7.788;2023-07-08T08:36:11;23.90;99.90
2002;DHT22;1003;48.002;7.788;2023-07-08T08:38:38;24.10;99.90
2002;DHT22;1003;48.002;7.788;2023-07-08T08:41:12;24.20;99.90
2002;DHT22;1003;48.002;7.788;2023-07-08T08:43:42;24.50;99.90
2002;DHT22;1003;48.002;7.788;2023-07-08T08:46:22;24.50;99.90
2002;DHT22;1003;48.002;7.788;2023-07-08T08:48:59;24.50;99.90
2002;DHT22;1003;48.002;7.788;2023-07-08T08:51:32;24.80;99.90
2002;DHT22;1003;48.002;7.788;2023-07-08T08:54:00;24.90;99.90
2002;DHT22;1003;48.002;7.788;2023-07-08T08:56:31;24.80;99.90
2002;DHT22;1003;48.002;7.788;2023-07-08T08:59:09;25.00;99.90
2002;DHT22;1003;48.002;7.788;2023-07-08T09:01:43;25.00;99.90
2002;DHT22;1003;48.002;7.788;2023-07-08T09:04:15;25.10;99.90
2002;DHT22;1003;48.002;7.788;2023-07-08T09:06:47;25.00;99.90
2002;DHT22;1003;48.002;7.788;2023-07-08T09:09:19;24.80;99.90
2002;DHT22;1003;48.002;7.788;2023-07-08T09:11:56;25.00;99.90
2002;DHT22;1003;48.002;7.788;2023-07-08T09:14:31;24.80;99.90
2002;DHT22;1003;48.002;7.788;2023-07-08T09:17:15;24.80;99.90
2002;DHT22;1003;48.002;7.788;2023-07-08T09:19:50;25.00;99.90
2002;DHT22;1003;48.002;7.788;2023-07-08T09:22:30;25.20;99.90
2002;DHT22;1003;48.002;7.788;2023-07-08T09:25:10;25.50;99.90
2002;DHT22;1003;48.002;7.788;2023-07-08T09:27:46;25.70;99.90
2002;DHT22;1003;48.002;7.788;2023-07-08T09:30:16;25.80;99.90
2002;DHT22;1003;48.002;7.788;2023-07-08T09:32:46;25.60;99.90
2002;DHT22;1003;48.002;7.788;2023-07-08T09:35:18;25.50;99.90
2002;DHT22;1003;48.002;7.788;2023-07-08T09:37:48;25.40;99.90
2002;DHT22;1003;48.002;7.788;2023-07-08T09:40:18;25.40;99.90
2002;DHT22;1003;48.002;7.788;2023-07-08T09:42:49;25.50;99.90
2002;DHT22;1003;48.002;7.788;2023-07-08T09:45:22;25.50;99.90
2002;DHT22;1003;48.002;7.788;2023-07-08T09:47:53;25.70;99.90
2002;DHT22;1003;48.002;7.788;2023-07-08T09:50:23;25.70;99.90
2002;DHT22;1003;48.002;7.788;2023-07-08T09:52:53;25.80;99.90
2002;DHT22;1003;48.002;7.788;2023-07-08T09:55:22;25.70;99.90
2002;DHT22;1003;48.002;7.788;2023-07-08T09:57:52;25.80;99.90
2002;DHT22;1003;48.002;7.788;2023-07-08T10:00:28;25.70;99.90
2002;DHT22;1003;48.002;7.788;2023-07-08T10:03:04;25.90;99.90
2002;DHT22;1003;48.002;7.788;2023-07-08T10:05:42;26.00;99.90
2002;DHT22;1003;48.002;7.788;2023-07-08T10:08:14;25.90;99.90
2002;DHT22;1003;48.002;7.788;2023-07-08T10:10:43;26.10;99.90
2002;DHT22;1003;48.002;7.788;2023-07-08T10:13:17;26.20;99.90
2002;DHT22;1003;48.002;7.788;2023-07-08T10:15:55;26.20;99.90
2002;DHT22;1003;48.002;7.788;2023-07-08T10:18:33;26.40;99.90
2002;DHT22;1003;48.002;7.788;2023-07-08T10:21:06;26.30;99.90
2002;DHT22;1003;48.002;7.788;2023-07-08T10:23:45;26.50;99.90
2002;DHT22;1003;48.002;7.788;2023-07-08T10:26:24;26.50;99.90
2002;DHT22;1003;48.002;7.788;2023-07-08T10:29:00;26.40;99.90
2002;DHT22;1003;48.002;7.788;2023-07-08T10:31:45;26.40;99.90
2002;DHT22;1003;48.002;7.788;2023-07-08T10:34:32;26.50;99.90
2002;DHT22;1003;48.002;7.788;2023-07-08T10:37:15;26.50;99.90
2002;DHT22;1003;48.002;7.788;2023-07-08T10:40:01;26.50;99.90
2002;DHT22;1003;48.002;7.788;2023-07-08T10:42:56;26.80;99.90
2002;DHT22;1003;48.002;7.788;2023-07-08T10:45:50;26.90;99.90
2002;DHT22;1003;48.002;7.788;2023-07-08T10:48:43;26.90;99.90
2002;DHT22;1003;48.002;7.788;2023-07-08T10:51:29;27.20;99.90
2002;DHT22;1003;48.002;7.788;2023-07-08T10:54:31;27.50;99.90
2002;DHT22;1003;48.002;7.788;2023-07-08T10:57:26;27.80;99.90
2002;DHT22;1003;48.002;7.788;2023-07-08T11:00:19;27.80;99.90
2002;DHT22;1003;48.002;7.788;2023-07-08T11:03:08;27.70;99.90
2002;DHT22;1003;48.002;7.788;2023-07-08T11:05:59;27.70;99.90
2002;DHT22;1003;48.002;7.788;2023-07-08T11:08:39;27.90;99.90
2002;DHT22;1003;48.002;7.788;2023-07-08T11:11:18;28.00;99.90
2002;DHT22;1003;48.002;7.788;2023-07-08T11:14:01;28.00;99.90
2002;DHT22;1003;48.002;7.788;2023-07-08T11:16:39;28.20;99.90
2002;DHT22;1003;48.002;7.788;2023-07-08T11:19:17;28.30;99.90
2002;DHT22;1003;48.002;7.788;2023-07-08T11:21:52;28.30;99.90
2002;DHT22;1003;48.002;7.788;2023-07-08T11:24:25;28.30;99.90
2002;DHT22;1003;48.002;7.788;2023-07-08T11:27:04;28.30;99.90
2002;DHT22;1003;48.002;7.788;2023-07-08T11:29:40;28.40;99.90
2002;DHT22;1003;48.002;7.788;2023-07-08T11:32:16;28.40;99.90
2002;DHT22;1003;48.002;7.788;2023-07-08T11:34:47;28.50;99.90
2002;DHT22;1003;48.002;7.788;2023-07-08T11:37:18;28.50;99.90
2002;DHT22;1003;48.002;7.788;2023-07-08T11:39:53;28.60;99.90
2002;DHT22;1003;48.002;7.788;2023-07-08T11:42:34;28.70;99.90
2002;DHT22;1003;48.002;7.788;2023-07-08T11:45:07;28.80;99.90
2002;DHT22;1003;48.002;7.788;2023-07-08T11:47:51;29.00;99.90
2002;DHT22;1003;48.002;7.788;2023-07-08T11:50:21;29.10;99.90
2002;DHT22;1003;48.002;7.788;2023-07-08T11:52:53;29.00;99.90
2002;DHT22;1003;48.002;7.788;2023-07-08T11:55:27;28.80;99.90
2002;DHT22;1003;48.002;7.788;2023-07-08T11:58:06;28.80;99.90
2002;DHT22;1003;48.002;7.788;2023-07-08T12:00:34;28.70;99.90
2002;DHT22;1003;48.002;7.788;2023-07-08T12:03:19;28.90;99.90
2002;DHT22;1003;48.002;7.788;2023-07-08T12:05:48;28.90;99.90
2002;DHT22;1003;48.002;7.788;2023-07-08T12:08:18;29.20;99.90
2002;DHT22;1003;48.002;7.788;2023-07-08T12:10:48;29.40;99.90
2002;DHT22;1003;48.002;7.788;2023-07-08T12:13:19;29.60;99.90
2002;DHT22;1003;48.002;7.788;2023-07-08T12:15:49;29.60;99.90
2002;DHT22;1003;48.002;7.788;2023-07-08T12:18:20;29.60;99.90
2002;DHT22;1003;48.002;7.788;2023-07-08T12:20:54;29.80;99.90
2002;DHT22;1003;48.002;7.788;2023-07-08T12:23:25;30.00;99.90
2002;DHT22;1003;48.002;7.788;2023-07-08T12:25:55;30.00;99.90
2002;DHT22;1003;48.002;7.788;2023-07-08T12:28:24;29.80;99.90
2002;DHT22;1003;48.002;7.788;2023-07-08T12:30:52;29.80;99.90
2002;DHT22;1003;48.002;7.788;2023-07-08T12:33:26;29.70;99.90
2002;DHT22;1003;48.002;7.788;2023-07-08T12:35:55;29.60;99.90
2002;DHT22;1003;48.002;7.788;2023-07-08T12:38:28;29.60;99.90
2002;DHT22;1003;48.002;7.788;2023-07-08T12:40:59;29.60;99.90
2002;DHT22;1003;48.002;7.788;2023-07-08T12:43:28;29.70;99.90
2002;DHT22;1003;48.002;7.788;2023-07-08T12:45:55;29.80;99.90
2002;DHT22;1003;48.002;7.788;2023-07-08T12:48:22;30.00;99.90
2002;DHT22;1003;48.002;7.788;2023-07-08T12:50:49;29.80;99.90
2002;DHT22;1003;48.002;7.788;2023-07-08T12:53:16;30.00;99.90
2002;DHT22;1003;48.002;7.788;2023-07-08T12:55:47;30.00;99.90
2002;DHT22;1003;48.002;7.788;2023-07-08T12:58:23;29.80;99.90
2002;DHT22;1003;48.002;7.788;2023-07-08T13:00:53;29.90;99.90
2002;DHT22;1003;48.002;7.788;2023-07-08T13:03:24;29.90;99.90
2002;DHT22;1003;48.002;7.788;2023-07-08T13:05:56;29.70;99.90
2002;DHT22;1003;48.002;7.788;2023-07-08T13:08:29;29.90;99.90
2002;DHT22;1003;48.002;7.788;2023-07-08T13:11:02;30.00;99.90
2002;DHT22;1003;48.002;7.788;2023-07-08T13:13:34;29.80;99.90
2002;DHT22;1003;48.002;7.788;2023-07-08T13:16:05;29.60;99.90
2002;DHT22;1003;48.002;7.788;2023-07-08T13:18:35;29.70;99.90
2002;DHT22;1003;48.002;7.788;2023-07-08T13:21:05;29.70;99.90
2002;DHT22;1003;48.002;7.788;2023-07-08T13:23:35;29.80;99.90
2002;DHT22;1003;48.002;7.788;2023-07-08T13:26:12;30.00;99.90
2002;DHT22;1003;48.002;7.788;2023-07-08T13:28:41;30.00;99.90
2002;DHT22;1003;48.002;7.788;2023-07-08T13:31:15;30.00;99.90
2002;DHT22;1003;48.002;7.788;2023-07-08T13:33:49;30.00;99.90
2002;DHT22;1003;48.002;7.788;2023-07-08T13:36:20;30.00;99.90
2002;DHT22;1003;48.002;7.788;2023-07-08T13:38:50;30.00;99.90
2002;DHT22;1003;48.002;7.788;2023-07-08T13:41:20;30.10;99.90
2002;DHT22;1003;48.002;7.788;2023-07-08T13:43:49;30.20;99.90
2002;DHT22;1003;48.002;7.788;2023-07-08T13:46:29;30.30;99.90
2002;DHT22;1003;48.002;7.788;2023-07-08T13:49:00;30.40;99.90
2002;DHT22;1003;48.002;7.788;2023-07-08T13:51:31;30.40;99.90
2002;DHT22;1003;48.002;7.788;2023-07-08T13:54:01;30.40;99.90
2002;DHT22;1003;48.002;7.788;2023-07-08T13:56:40;30.40;99.90
2002;DHT22;1003;48.002;7.788;2023-07-08T13:59:12;30.50;99.90
2002;DHT22;1003;48.002;7.788;2023-07-08T14:01:47;30.50;99.90
2002;DHT22;1003;48.002;7.788;2023-07-08T14:04:23;30.50;99.90
2002;DHT22;1003;48.002;7.788;2023-07-08T14:06:54;30.50;99.90
2002;DHT22;1003;48.002;7.788;2023-07-08T14:09:23;30.70;99.90
2002;DHT22;1003;48.002;7.788;2023-07-08T14:11:52;30.70;99.90
2002;DHT22;1003;48.002;7.788;2023-07-08T14:14:20;30.60;99.90
2002;DHT22;1003;48.002;7.788;2023-07-08T14:16:50;30.60;99.90
2002;DHT22;1003;48.002;7.788;2023-07-08T14:19:22;30.60;99.90
2002;DHT22;1003;48.002;7.788;2023-07-08T14:21:53;30.50;99.90
2002;DHT22;1003;48.002;7.788;2023-07-08T14:24:22;30.50;99.90
2002;DHT22;1003;48.002;7.788;2023-07-08T14:26:49;30.60;99.90
2002;DHT22;1003;48.002;7.788;2023-07-08T14:29:18;30.70;99.90
2002;DHT22;1003;48.002;7.788;2023-07-08T14:31:45;30.70;99.90
2002;DHT22;1003;48.002;7.788;2023-07-08T14:34:15;30.50;99.90
2002;DHT22;1003;48.002;7.788;2023-07-08T14:36:47;30.60;99.90
2002;DHT22;1003;48.002;7.788;2023-07-08T14:39:16;30.60;99.90
2002;DHT22;1003;48.002;7.788;2023-07-08T14:41:46;30.60;99.90
2002;DHT22;1003;48.002;7.788;2023-07-08T14:44:22;30.60;99.90
2002;DHT22;1003;48.002;7.788;2023-07-08T14:46:51;30.60;99.90
2002;DHT22;1003;48.002;7.788;2023-07-08T14:49:21;30.70;99.90
2002;DHT22;1003;48.002;7.788;2023-07-08T14:51:49;30.60;99.90
2002;DHT22;1003;48.002;7.788;2023-07-08T14:54:17;30.60;99.90
2002;DHT22;1003;48.002;7.788;2023-07-08T14:56:46;30.60;99.90
2002;DHT22;1003;48.002;7.788;2023-07-08T14:59:16;30.70;99.90
2002;DHT22;1003;48.002;7.788;2023-07-08T15:01:47;30.80;99.90
2002;DHT22;1003;48.002;7.788;2023-07-08T15:04:16;30.90;99.90
2002;DHT22;1003;48.002;7.788;2023-07-08T15:06:45;30.90;99.90
2002;DHT22;1003;48.002;7.788;2023-07-08T15:09:13;30.90;99.90
2002;DHT22;1003;48.002;7.788;2023-07-08T15:11:41;30.80;99.90
2002;DHT22;1003;48.002;7.788;2023-07-08T15:14:13;30.90;99.90
2002;DHT22;1003;48.002;7.788;2023-07-08T15:16:44;30.90;99.90
2002;DHT22;1003;48.002;7.788;2023-07-08T15:19:13;30.90;99.90
2002;DHT22;1003;48.002;7.788;2023-07-08T15:21:40;30.90;99.90
2002;DHT22;1003;48.002;7.788;2023-07-08T15:24:09;30.90;99.90
2002;DHT22;1003;48.002;7.788;2023-07-08T15:26:37;30.90;99.50
2002;DHT22;1003;48.002;7.788;2023-07-08T15:29:12;30.90;99.90
2002;DHT22;1003;48.002;7.788;2023-07-08T15:31:41;30.90;99.90
2002;DHT22;1003;48.002;7.788;2023-07-08T15:34:12;31.00;99.50
2002;DHT22;1003;48.002;7.788;2023-07-08T15:36:41;31.00;99.40
2002;DHT22;1003;48.002;7.788;2023-07-08T15:39:08;31.00;99.00
2002;DHT22;1003;48.002;7.788;2023-07-08T15:41:36;31.00;99.60
2002;DHT22;1003;48.002;7.788;2023-07-08T15:44:04;31.00;99.90
2002;DHT22;1003;48.002;7.788;2023-07-08T15:46:35;31.00;99.90
2002;DHT22;1003;48.002;7.788;2023-07-08T15:49:13;31.00;99.90
2002;DHT22;1003;48.002;7.788;2023-07-08T15:51:42;31.00;99.90
2002;DHT22;1003;48.002;7.788;2023-07-08T15:54:10;30.90;99.30
2002;DHT22;1003;48.002;7.788;2023-07-08T15:56:37;31.00;99.70
2002;DHT22;1003;48.002;7.788;2023-07-08T15:59:09;31.00;99.80
2002;DHT22;1003;48.002;7.788;2023-07-08T16:01:42;31.00;99.90
2002;DHT22;1003;48.002;7.788;2023-07-08T16:04:18;31.00;99.90
2002;DHT22;1003;48.002;7.788;2023-07-08T16:06:51;30.90;99.30
2002;DHT22;1003;48.002;7.788;2023-07-08T16:09:19;30.80;99.70
2002;DHT22;1003;48.002;7.788;2023-07-08T16:11:46;30.80;99.90
2002;DHT22;1003;48.002;7.788;2023-07-08T16:14:14;30.70;99.80
2002;DHT22;1003;48.002;7.788;2023-07-08T16:16:43;30.70;99.90
2002;DHT22;1003;48.002;7.788;2023-07-08T16:19:11;30.70;99.90
2002;DHT22;1003;48.002;7.788;2023-07-08T16:21:41;30.70;99.90
2002;DHT22;1003;48.002;7.788;2023-07-08T16:24:08;30.70;99.90